Mount Eaton, Ohio
Current Conditions -  °F | °C
As of 2:06 PM on Thursday 23 Oct 2014 (Local Time) from KBJJ Reporting Station
Scattered Clouds Scattered Clouds  
Wind Chill: 58°   Ceiling: Unl
Heat Index: 58°   Visibility: 10mi
Dew Point: 43°   Wind: 9mph
Humidity: 58%   Direction: 10°N
Pressure: 30.16"   Gusts: NA
Location:  40.69°N, 81.7°W
Report Text: KBJJ 231806Z AUTO 01008KT 10SM SCT026 14/06 A3016 RMK AO2 T01440061 TSNO
Loading
Personal Weather Stations






























Interactive Weather Map
Tropical Storm Tracking
New forecast layout! Learn more

10-Day Weather Forecast

Advertisements
Track Severe Weather on mobile